createdAt,value
2022-09-07T00:01:20.645Z,1.70
2022-09-07T00:03:54.484Z,1.60
2022-09-07T00:06:23.751Z,1.55
2022-09-07T00:08:53.545Z,1.60
2022-09-07T00:11:21.959Z,1.88
2022-09-07T00:13:50.634Z,1.50
2022-09-07T00:16:30.736Z,1.52
2022-09-07T00:19:02.087Z,1.85
2022-09-07T00:21:31.514Z,1.70
2022-09-07T00:24:00.642Z,1.73
2022-09-07T00:26:31.355Z,2.00
2022-09-07T00:29:19.183Z,1.60
2022-09-07T00:31:47.303Z,1.38
2022-09-07T00:34:16.589Z,1.42
2022-09-07T00:36:45.126Z,1.30
2022-09-07T00:39:14.296Z,1.60
2022-09-07T00:41:42.717Z,1.55
2022-09-07T00:44:45.012Z,1.40
2022-09-07T00:47:20.240Z,1.60
2022-09-07T00:49:58.653Z,1.60
2022-09-07T00:52:28.506Z,1.42
2022-09-07T00:57:31.425Z,1.50
2022-09-07T01:00:00.241Z,1.45
2022-09-07T01:02:28.238Z,1.50
2022-09-07T01:05:09.588Z,1.33
2022-09-07T01:10:07.746Z,1.40
2022-09-07T01:12:35.799Z,1.50
2022-09-07T01:15:04.873Z,1.45
2022-09-07T01:17:47.223Z,1.42
2022-09-07T01:20:50.608Z,1.40
2022-09-07T01:24:15.150Z,1.30
2022-09-07T01:27:57.075Z,1.70
2022-09-07T01:30:25.975Z,1.67
2022-09-07T01:33:33.531Z,1.67
2022-09-07T01:36:13.533Z,1.70
2022-09-07T01:38:56.624Z,1.60
2022-09-07T01:41:54.808Z,1.45
2022-09-07T01:44:58.307Z,1.50
2022-09-07T01:47:46.285Z,1.58
2022-09-07T01:50:39.394Z,1.70
2022-09-07T01:53:24.939Z,1.50
2022-09-07T01:56:05.207Z,1.60
2022-09-07T01:58:56.303Z,1.55
2022-09-07T02:01:34.039Z,2.13
2022-09-07T02:04:31.518Z,1.50
2022-09-07T02:07:35.857Z,1.33
2022-09-07T02:10:35.138Z,1.40
2022-09-07T02:13:34.987Z,1.48
2022-09-07T02:16:29.880Z,1.70
2022-09-07T02:19:08.167Z,1.55
2022-09-07T02:21:48.556Z,1.60
2022-09-07T02:24:41.809Z,1.65
2022-09-07T02:27:22.215Z,1.48
2022-09-07T08:34:01.887Z,1.10
2022-09-07T08:36:31.748Z,1.30
2022-09-07T08:39:00.201Z,1.38
2022-09-07T08:42:12.406Z,1.50
2022-09-07T08:45:11.856Z,1.27
2022-09-07T08:47:50.537Z,1.70
2022-09-07T08:50:52.197Z,1.40
2022-09-07T08:56:13.991Z,1.38
2022-09-07T08:58:51.351Z,1.33
2022-09-07T09:01:37.586Z,1.38
2022-09-07T09:04:20.758Z,1.25
2022-09-07T09:07:03.397Z,1.48
2022-09-07T09:10:05.914Z,1.10
2022-09-07T09:13:17.147Z,1.30
2022-09-07T09:16:00.588Z,1.23
2022-09-07T09:18:55.504Z,1.30
2022-09-07T09:21:23.485Z,1.35
2022-09-07T09:23:55.367Z,1.40
2022-09-07T09:26:30.607Z,1.15
2022-09-07T09:28:58.706Z,1.30
2022-09-07T09:31:36.064Z,1.40
2022-09-07T09:34:17.694Z,1.30
2022-09-07T09:36:55.997Z,1.60
2022-09-07T09:39:37.696Z,1.20
2022-09-07T09:42:11.548Z,1.20
2022-09-07T09:44:40.099Z,1.38
2022-09-07T09:47:30.971Z,1.20
2022-09-07T09:53:42.789Z,1.55
2022-09-07T09:56:10.979Z,1.38
2022-09-07T10:01:35.446Z,1.17
2022-09-07T10:04:34.744Z,1.23
2022-09-07T10:07:28.442Z,1.23
2022-09-07T10:09:56.932Z,1.23
2022-09-07T10:12:35.746Z,1.25
2022-09-07T10:15:08.898Z,1.30
2022-09-07T10:17:43.359Z,1.17
2022-09-07T10:20:16.793Z,1.17
2022-09-07T10:22:51.948Z,1.30
2022-09-07T10:25:41.555Z,1.13
2022-09-07T10:28:12.866Z,1.25
2022-09-07T10:31:31.824Z,1.23
2022-09-07T10:34:27.329Z,1.23
2022-09-07T10:37:05.798Z,1.10
2022-09-07T10:39:42.931Z,1.65
2022-09-07T10:42:33.987Z,1.40
2022-09-07T10:45:29.083Z,1.58
2022-09-07T10:56:16.960Z,1.27
2022-09-07T10:59:15.774Z,1.52
2022-09-07T11:02:03.483Z,1.45
2022-09-07T11:04:54.634Z,1.38
2022-09-07T11:08:05.052Z,1.23
2022-09-07T11:11:01.757Z,1.20
2022-09-07T11:13:50.193Z,1.13
2022-09-07T11:16:53.716Z,1.30
2022-09-07T11:19:55.196Z,1.27
2022-09-07T11:22:46.595Z,0.98
2022-09-07T11:28:07.630Z,1.00
2022-09-07T11:31:00.361Z,1.10
2022-09-07T11:33:41.291Z,1.20
2022-09-07T11:36:16.815Z,0.80
2022-09-07T11:39:13.043Z,1.17
2022-09-07T11:45:22.108Z,1.20
2022-09-07T11:48:31.184Z,0.93
2022-09-07T11:51:08.912Z,1.02
2022-09-07T11:53:44.140Z,1.10
2022-09-07T11:56:37.644Z,1.27
2022-09-07T11:59:19.638Z,1.40
2022-09-07T12:02:58.389Z,1.17
2022-09-07T12:06:12.743Z,1.27
2022-09-07T12:09:09.748Z,0.88
2022-09-07T12:11:46.777Z,0.90
2022-09-07T12:14:42.481Z,1.10
2022-09-07T12:17:44.359Z,1.10
2022-09-07T12:20:14.686Z,0.95
2022-09-07T12:23:05.945Z,0.98
2022-09-07T12:25:34.988Z,0.90
2022-09-07T12:28:03.277Z,0.88
2022-09-07T12:30:32.160Z,0.95
2022-09-07T12:33:18.526Z,0.90
2022-09-07T12:35:46.929Z,0.82
2022-09-07T12:38:18.650Z,1.00
2022-09-07T12:40:58.812Z,0.90
2022-09-07T12:43:47.012Z,0.70
2022-09-07T12:46:35.048Z,1.00
2022-09-07T12:49:29.749Z,0.80
2022-09-07T12:52:45.883Z,0.80
2022-09-07T12:59:04.964Z,0.90
2022-09-07T13:04:22.938Z,0.77
2022-09-07T13:07:27.915Z,0.90
2022-09-07T13:09:59.243Z,0.70
2022-09-07T13:13:00.372Z,0.70
2022-09-07T13:16:14.453Z,0.75
2022-09-07T13:18:47.139Z,0.70
2022-09-07T13:21:17.413Z,1.00
2022-09-07T13:27:11.087Z,0.80
2022-09-07T13:29:42.151Z,0.70
2022-09-07T13:33:07.995Z,0.80
2022-09-07T13:35:20.595Z,0.82
2022-09-07T13:38:01.705Z,0.60
2022-09-07T13:43:04.434Z,0.80
2022-09-07T13:45:48.511Z,0.80
2022-09-07T13:48:37.464Z,0.80
2022-09-07T13:51:29.681Z,0.93
2022-09-07T13:54:21.953Z,0.70
2022-09-07T13:57:30.776Z,0.73
2022-09-07T13:59:59.258Z,0.80
2022-09-07T14:02:33.493Z,0.82
2022-09-07T14:05:04.293Z,0.98
2022-09-07T14:07:32.513Z,0.80
2022-09-07T14:10:13.284Z,0.77
2022-09-07T14:12:51.344Z,0.73
2022-09-07T14:15:45.320Z,0.70
2022-09-07T14:18:44.376Z,0.80
2022-09-07T14:21:19.056Z,0.73
2022-09-07T14:23:51.397Z,0.63
2022-09-07T14:26:23.021Z,0.70
2022-09-07T14:28:55.146Z,0.65
2022-09-07T14:31:25.332Z,0.70
2022-09-07T14:33:58.278Z,0.70
2022-09-07T14:36:45.227Z,0.70
2022-09-07T14:39:19.454Z,0.70
2022-09-07T14:41:48.103Z,0.80
2022-09-07T14:44:39.012Z,0.80
2022-09-07T14:47:29.113Z,0.70
2022-09-07T14:50:06.010Z,0.90
2022-09-07T14:53:33.288Z,0.55
2022-09-07T14:55:38.186Z,0.73
2022-09-07T14:58:14.663Z,0.63
2022-09-07T15:00:46.275Z,0.70
2022-09-07T15:03:51.200Z,0.60
2022-09-07T15:09:39.726Z,0.70
2022-09-07T15:12:33.077Z,0.70
2022-09-07T15:15:26.583Z,0.60
2022-09-07T15:18:04.541Z,0.70
2022-09-07T15:20:44.064Z,0.60
2022-09-07T15:23:19.568Z,0.60
2022-09-07T15:25:54.250Z,0.68
2022-09-07T15:34:16.109Z,0.70
2022-09-07T15:36:51.312Z,0.65
2022-09-07T15:39:28.261Z,0.57
2022-09-07T15:42:00.160Z,0.65
2022-09-07T15:44:46.514Z,0.60
2022-09-07T15:50:03.355Z,0.40
2022-09-07T15:52:35.786Z,0.50
2022-09-07T15:55:04.289Z,0.50
2022-09-07T16:00:20.998Z,0.80
2022-09-07T16:03:06.800Z,0.60
2022-09-07T16:05:35.223Z,0.68
2022-09-07T16:10:54.238Z,0.60
2022-09-07T16:13:24.610Z,0.43
2022-09-07T16:15:52.591Z,0.52
2022-09-07T16:18:20.854Z,0.60
2022-09-07T16:20:52.587Z,0.68
2022-09-07T16:23:21.838Z,0.70
2022-09-07T16:25:59.056Z,0.70
2022-09-07T16:28:28.935Z,0.60
2022-09-07T16:30:57.431Z,0.70
2022-09-07T16:33:33.150Z,0.43
2022-09-07T16:36:16.282Z,0.52
2022-09-07T16:38:48.396Z,0.60
2022-09-07T16:41:23.165Z,0.50
2022-09-07T16:43:51.490Z,0.60
2022-09-07T16:46:23.932Z,0.60
2022-09-07T16:48:54.412Z,0.52
2022-09-07T16:51:24.897Z,1.75
2022-09-07T16:53:58.880Z,0.50
2022-09-07T16:56:33.695Z,0.70
2022-09-07T16:59:08.887Z,0.70
2022-09-07T17:01:38.293Z,0.60
2022-09-07T17:04:10.663Z,0.50
2022-09-07T17:06:40.304Z,0.40
2022-09-07T17:09:10.752Z,0.55
2022-09-07T17:11:39.127Z,0.47
2022-09-07T17:14:07.466Z,0.45
2022-09-07T17:16:41.054Z,0.50
2022-09-07T17:22:01.234Z,0.70
2022-09-07T17:24:32.203Z,0.50
2022-09-07T17:29:33.888Z,0.43
2022-09-07T17:34:55.634Z,0.45
2022-09-07T17:37:23.849Z,0.40
2022-09-07T17:39:52.174Z,0.65
2022-09-07T17:42:22.653Z,0.50
2022-09-07T17:44:53.996Z,0.50
2022-09-07T17:47:23.402Z,0.60
2022-09-07T17:49:51.951Z,0.50
2022-09-07T17:52:19.972Z,0.60
2022-09-07T17:54:48.147Z,0.52
2022-09-07T17:57:17.038Z,0.68
2022-09-07T18:02:38.764Z,0.50
2022-09-07T18:05:07.504Z,0.60
2022-09-07T18:07:35.326Z,0.45
2022-09-07T18:10:03.369Z,0.45
2022-09-07T18:12:33.022Z,0.60
2022-09-07T18:15:01.287Z,0.47
2022-09-07T18:17:30.175Z,0.60
2022-09-07T18:19:58.841Z,0.65
2022-09-07T18:22:30.549Z,0.47
2022-09-07T18:25:00.685Z,0.63
2022-09-07T18:27:28.631Z,0.68
2022-09-07T18:29:57.022Z,0.75
2022-09-07T18:32:26.265Z,0.70
2022-09-07T18:34:54.671Z,0.70
2022-09-07T18:37:22.881Z,0.60
2022-09-07T18:39:51.015Z,0.70
2022-09-07T18:42:19.025Z,0.80
2022-09-07T18:47:39.953Z,1.27
2022-09-07T18:50:11.434Z,0.80
2022-09-07T18:53:04.131Z,0.98
2022-09-07T18:55:28.654Z,1.00
2022-09-07T18:57:57.233Z,0.70
2022-09-07T19:00:26.333Z,0.80
2022-09-07T19:02:55.864Z,1.10
2022-09-07T19:08:15.315Z,1.40
2022-09-07T19:10:44.863Z,1.00
2022-09-07T19:13:14.401Z,0.80
2022-09-07T19:15:42.971Z,0.88
2022-09-07T19:18:12.190Z,0.90
2022-09-07T19:20:41.278Z,0.70
2022-09-07T19:23:09.612Z,0.80
2022-09-07T19:25:45.045Z,0.85
2022-09-07T19:28:13.476Z,0.88
2022-09-07T19:30:42.020Z,0.80
2022-09-07T19:33:12.821Z,0.80
2022-09-07T19:35:41.666Z,0.88
2022-09-07T19:38:10.373Z,0.63
2022-09-07T19:40:39.865Z,0.70
2022-09-07T19:43:08.963Z,0.90
2022-09-07T19:45:41.631Z,0.80
2022-09-07T19:48:09.759Z,0.77
2022-09-07T19:50:38.538Z,0.68
2022-09-07T19:53:08.470Z,0.88
2022-09-07T19:55:36.785Z,1.05
2022-09-07T19:58:06.048Z,0.93
2022-09-07T20:00:34.606Z,0.85
2022-09-07T20:03:03.143Z,0.80
2022-09-07T20:05:32.226Z,1.25
2022-09-07T20:08:01.520Z,1.20
2022-09-07T20:10:32.922Z,0.90
2022-09-07T20:15:29.970Z,1.00
2022-09-07T20:17:59.356Z,1.00
2022-09-07T20:20:27.212Z,1.20
2022-09-07T20:22:55.059Z,1.00
2022-09-07T20:25:23.764Z,0.80
2022-09-07T20:27:51.540Z,0.90
2022-09-07T20:30:19.468Z,0.80
2022-09-07T20:32:51.723Z,0.90
2022-09-07T20:37:48.817Z,0.90
2022-09-07T20:40:17.026Z,0.80
2022-09-07T20:42:46.187Z,0.90
2022-09-07T20:45:14.643Z,1.00
2022-09-07T20:47:44.814Z,0.82
2022-09-07T20:50:12.728Z,1.08
2022-09-07T20:52:41.410Z,1.00
2022-09-07T20:55:09.887Z,0.93
2022-09-07T20:57:38.044Z,0.95
2022-09-07T21:00:11.156Z,1.00
2022-09-07T21:02:39.366Z,1.00
2022-09-07T21:05:09.440Z,1.15
2022-09-07T21:07:41.710Z,1.10
2022-09-07T21:10:10.375Z,1.17
2022-09-07T21:12:38.485Z,0.80
2022-09-07T21:15:08.931Z,1.02
2022-09-07T21:17:36.773Z,1.13
2022-09-07T21:20:05.851Z,1.00
2022-09-07T21:22:33.502Z,1.17
2022-09-07T21:25:02.241Z,0.70
2022-09-07T21:27:38.084Z,1.00
2022-09-07T21:30:07.514Z,1.00
2022-09-07T21:32:35.350Z,1.00
2022-09-07T21:35:03.132Z,0.80
2022-09-07T21:37:31.775Z,0.95
2022-09-07T21:40:01.490Z,1.00
2022-09-07T21:42:30.486Z,1.10
2022-09-07T21:44:59.578Z,1.00
2022-09-07T21:47:27.696Z,1.13
2022-09-07T21:49:55.876Z,1.10
2022-09-07T21:52:24.351Z,1.10
2022-09-07T21:54:53.928Z,1.20
2022-09-07T21:57:22.306Z,1.08
2022-09-07T21:59:50.439Z,1.00
2022-09-07T22:02:18.752Z,1.00
2022-09-07T22:04:47.286Z,1.13
2022-09-07T22:07:15.350Z,1.15
2022-09-07T22:09:43.837Z,1.10
2022-09-07T22:12:11.603Z,1.02
2022-09-07T22:14:39.838Z,0.90
2022-09-07T22:17:09.581Z,0.93
2022-09-07T22:19:39.634Z,0.90
2022-09-07T22:22:08.539Z,1.02
2022-09-07T22:24:36.281Z,1.08
2022-09-07T22:27:05.038Z,1.30
2022-09-07T22:29:33.385Z,1.35
2022-09-07T22:32:01.395Z,1.55
2022-09-07T22:34:29.603Z,1.42
2022-09-07T22:36:57.406Z,1.33
2022-09-07T22:39:25.634Z,1.60
2022-09-07T22:41:53.796Z,1.70
2022-09-07T22:44:21.999Z,1.60
2022-09-07T22:46:50.563Z,1.85
2022-09-07T22:49:29.576Z,1.55
2022-09-07T22:51:57.961Z,1.60
2022-09-07T22:54:25.756Z,1.50
2022-09-07T22:56:53.628Z,1.48
2022-09-07T22:59:22.374Z,1.50
2022-09-07T23:01:50.725Z,1.30
2022-09-07T23:04:18.631Z,1.20
2022-09-07T23:06:46.913Z,1.20
2022-09-07T23:09:18.290Z,1.30
2022-09-07T23:11:48.722Z,1.20
2022-09-07T23:14:20.310Z,1.20
2022-09-07T23:16:49.047Z,1.10
2022-09-07T23:19:19.767Z,1.25
2022-09-07T23:21:48.085Z,1.27
2022-09-07T23:24:18.500Z,1.08
2022-09-07T23:26:46.973Z,1.38
2022-09-07T23:29:15.849Z,1.30
2022-09-07T23:31:47.263Z,1.30
2022-09-07T23:34:15.809Z,1.55
2022-09-07T23:36:43.606Z,1.40
2022-09-07T23:39:11.408Z,1.10
2022-09-07T23:41:40.345Z,1.08
2022-09-07T23:44:09.513Z,1.35
2022-09-07T23:46:37.853Z,1.45
2022-09-07T23:49:06.285Z,1.30
2022-09-07T23:51:34.459Z,1.20
2022-09-07T23:54:02.832Z,1.35
2022-09-07T23:56:33.014Z,1.20
2022-09-07T23:59:01.158Z,1.20
